createdAt,value
2018-02-27T00:00:41.970Z,16.17
2018-02-27T00:03:10.577Z,16.17
2018-02-27T00:05:38.060Z,16.17
2018-02-27T00:08:06.301Z,16.17
2018-02-27T00:10:34.517Z,16.17
2018-02-27T00:13:01.589Z,16.18
2018-02-27T00:15:29.440Z,16.17
2018-02-27T00:17:56.517Z,16.17
2018-02-27T00:20:24.380Z,16.18
2018-02-27T00:22:52.961Z,16.17
2018-02-27T00:25:20.437Z,16.17
2018-02-27T00:27:47.551Z,16.18
2018-02-27T00:30:14.630Z,16.18
2018-02-27T00:32:41.706Z,16.18
2018-02-27T00:35:10.295Z,16.18
2018-02-27T00:37:38.518Z,16.18
2018-02-27T00:40:05.607Z,16.19
2018-02-27T00:42:32.709Z,16.18
2018-02-27T00:45:00.566Z,16.19
2018-02-27T00:47:28.046Z,16.19
2018-02-27T00:49:56.267Z,16.19
2018-02-27T00:52:24.486Z,16.19
2018-02-27T00:54:51.585Z,16.19
2018-02-27T00:57:19.811Z,16.19
2018-02-27T00:59:46.901Z,16.19
2018-02-27T01:02:13.985Z,16.19
2018-02-27T01:04:42.224Z,16.19
2018-02-27T01:07:10.446Z,16.18
2018-02-27T01:09:37.521Z,16.19
2018-02-27T01:12:04.603Z,16.20
2018-02-27T01:14:32.075Z,16.19
2018-02-27T01:17:00.827Z,16.20
2018-02-27T01:19:28.305Z,16.20
2018-02-27T01:21:56.525Z,16.20
2018-02-27T01:24:25.661Z,16.20
2018-02-27T01:26:53.502Z,16.20
2018-02-27T01:29:20.988Z,16.20
2018-02-27T01:31:49.573Z,16.20
2018-02-27T01:34:17.423Z,16.21
2018-02-27T01:36:44.539Z,16.20
2018-02-27T01:39:12.033Z,16.20
2018-02-27T01:41:39.134Z,16.21
2018-02-27T01:44:06.981Z,16.20
2018-02-27T01:46:34.112Z,16.21
2018-02-27T01:49:01.194Z,16.21
2018-02-27T01:51:28.670Z,16.21
2018-02-27T01:53:55.745Z,16.21
2018-02-27T01:56:24.472Z,16.21
2018-02-27T01:58:53.215Z,16.21
2018-02-27T02:01:20.312Z,16.21
2018-02-27T02:03:47.394Z,16.21
2018-02-27T02:06:15.628Z,16.21
2018-02-27T02:08:44.232Z,16.21
2018-02-27T02:11:11.733Z,16.21
2018-02-27T02:13:40.372Z,16.21
2018-02-27T02:16:07.859Z,16.21
2018-02-27T02:18:35.708Z,16.22
2018-02-27T02:21:04.308Z,16.22
2018-02-27T02:23:31.792Z,16.21
2018-02-27T02:25:58.879Z,16.22
2018-02-27T02:28:25.956Z,16.21
2018-02-27T02:30:53.816Z,16.22
2018-02-27T02:33:21.686Z,16.22
2018-02-27T02:35:48.785Z,16.22
2018-02-27T02:38:15.875Z,16.22
2018-02-27T02:40:44.093Z,16.23
2018-02-27T02:43:11.937Z,16.22
2018-02-27T02:45:39.821Z,16.22
2018-02-27T02:48:07.671Z,16.23
2018-02-27T02:50:34.808Z,16.22
2018-02-27T02:53:01.910Z,16.22
2018-02-27T02:55:30.181Z,16.22
2018-02-27T02:57:57.651Z,16.22
2018-02-27T03:00:25.880Z,16.22
2018-02-27T03:02:53.751Z,16.22
2018-02-27T03:05:21.985Z,16.23
2018-02-27T03:07:50.238Z,16.23
2018-02-27T03:10:18.971Z,16.23
2018-02-27T03:12:46.441Z,16.23
2018-02-27T03:15:15.183Z,16.23
2018-02-27T03:17:42.709Z,16.23
2018-02-27T03:20:09.830Z,16.23
2018-02-27T03:22:36.931Z,16.23
2018-02-27T03:25:04.441Z,16.23
2018-02-27T03:27:31.532Z,16.23
2018-02-27T03:29:58.614Z,16.23
2018-02-27T03:32:25.715Z,16.23
2018-02-27T03:34:53.944Z,16.23
2018-02-27T03:37:21.065Z,16.23
2018-02-27T03:39:48.257Z,16.23
2018-02-27T03:42:15.785Z,16.23
2018-02-27T03:44:43.648Z,16.23
2018-02-27T03:47:10.740Z,16.24
2018-02-27T03:49:37.828Z,16.24
2018-02-27T03:52:06.055Z,16.24
2018-02-27T03:54:34.001Z,16.24
2018-02-27T03:57:01.859Z,16.24
2018-02-27T03:59:30.114Z,16.24
2018-02-27T04:01:57.981Z,16.24
2018-02-27T04:04:26.201Z,16.24
2018-02-27T04:06:53.285Z,16.24
2018-02-27T04:09:22.028Z,16.23
2018-02-27T04:11:49.160Z,16.24
2018-02-27T04:14:16.282Z,16.23
2018-02-27T04:16:44.198Z,16.23
2018-02-27T04:19:12.071Z,16.23
2018-02-27T04:21:40.290Z,16.23
2018-02-27T04:24:07.407Z,16.22
2018-02-27T04:26:36.148Z,16.21
2018-02-27T04:29:03.229Z,16.21
2018-02-27T04:31:31.957Z,16.21
2018-02-27T04:33:59.829Z,16.22
2018-02-27T04:36:26.937Z,16.21
2018-02-27T04:38:54.414Z,16.22
2018-02-27T04:41:22.649Z,16.22
2018-02-27T04:43:49.738Z,16.23
2018-02-27T04:46:18.483Z,16.23
2018-02-27T04:48:45.613Z,16.25
2018-02-27T04:51:13.089Z,16.25
2018-02-27T04:53:40.574Z,16.25
2018-02-27T04:56:08.808Z,16.26
2018-02-27T04:58:37.546Z,16.27
2018-02-27T05:01:05.818Z,16.27
2018-02-27T05:03:34.567Z,16.28
2018-02-27T05:06:02.058Z,16.28
2018-02-27T05:08:30.300Z,16.28
2018-02-27T05:10:57.782Z,16.28
2018-02-27T05:13:24.911Z,16.28
2018-02-27T05:15:51.990Z,16.29
2018-02-27T05:18:19.852Z,16.28
2018-02-27T05:20:48.089Z,16.28
2018-02-27T05:23:15.939Z,16.27
2018-02-27T05:25:44.190Z,16.27
2018-02-27T05:28:12.050Z,16.26
2018-02-27T05:30:40.289Z,16.27
2018-02-27T05:33:08.501Z,16.26
2018-02-27T05:35:35.581Z,16.26
2018-02-27T05:38:02.700Z,16.26
2018-02-27T05:40:29.791Z,16.26
2018-02-27T05:42:56.896Z,16.25
2018-02-27T05:45:24.364Z,16.25
2018-02-27T05:47:51.852Z,16.25
2018-02-27T05:50:20.103Z,16.24
2018-02-27T05:52:47.950Z,16.25
2018-02-27T05:55:15.048Z,16.24
2018-02-27T05:57:42.154Z,16.25
2018-02-27T06:00:09.241Z,16.25
2018-02-27T06:02:36.443Z,16.26
2018-02-27T06:05:04.271Z,16.26
2018-02-27T06:07:32.128Z,16.27
2018-02-27T06:09:59.978Z,16.26
2018-02-27T06:12:27.821Z,16.27
2018-02-27T06:14:56.073Z,16.28
2018-02-27T06:17:24.289Z,16.27
2018-02-27T06:19:52.225Z,16.28
2018-02-27T06:22:20.822Z,16.28
2018-02-27T06:24:47.906Z,16.28
2018-02-27T06:27:16.534Z,16.28
2018-02-27T06:29:44.050Z,16.28
2018-02-27T06:32:12.796Z,16.27
2018-02-27T06:34:40.692Z,16.27
2018-02-27T06:37:07.775Z,16.26
2018-02-27T06:39:35.900Z,16.25
2018-02-27T06:42:02.982Z,16.25
2018-02-27T06:44:31.721Z,16.24
2018-02-27T06:46:59.947Z,16.24
2018-02-27T06:49:27.799Z,16.24
2018-02-27T06:51:56.548Z,16.25
2018-02-27T06:54:24.426Z,16.25
2018-02-27T06:56:52.654Z,16.26
2018-02-27T06:59:20.141Z,16.26
2018-02-27T07:01:48.368Z,16.27
2018-02-27T07:04:15.855Z,16.28
2018-02-27T07:06:42.978Z,16.28
2018-02-27T07:09:10.058Z,16.29
2018-02-27T07:11:37.907Z,16.30
2018-02-27T07:14:05.390Z,16.30
2018-02-27T07:16:32.466Z,16.30
2018-02-27T07:18:59.602Z,16.30
2018-02-27T07:21:28.347Z,16.31
2018-02-27T07:23:55.872Z,16.30
2018-02-27T07:26:23.349Z,16.30
2018-02-27T07:28:51.938Z,16.30
2018-02-27T07:31:19.856Z,16.30
2018-02-27T07:33:46.943Z,16.29
2018-02-27T07:36:14.036Z,16.29
2018-02-27T07:38:41.886Z,16.29
2018-02-27T07:41:10.107Z,16.28
2018-02-27T07:43:37.949Z,16.28
2018-02-27T07:46:06.183Z,16.28
2018-02-27T07:48:34.070Z,16.28
2018-02-27T07:51:01.149Z,16.28
2018-02-27T07:53:28.225Z,16.28
2018-02-27T07:55:56.084Z,16.27
2018-02-27T07:58:24.322Z,16.28
2018-02-27T08:00:52.225Z,16.28
2018-02-27T08:03:20.077Z,16.28
2018-02-27T08:05:48.290Z,16.29
2018-02-27T08:08:16.524Z,16.29
2018-02-27T08:10:44.738Z,16.29
2018-02-27T08:13:12.959Z,16.29
2018-02-27T08:15:40.829Z,16.29
2018-02-27T08:18:09.101Z,16.30
2018-02-27T08:20:37.376Z,16.30
2018-02-27T08:23:04.462Z,16.30
2018-02-27T08:25:31.941Z,16.31
2018-02-27T08:27:59.031Z,16.31
2018-02-27T08:30:26.924Z,16.30
2018-02-27T08:32:54.024Z,16.31
2018-02-27T08:35:22.251Z,16.30
2018-02-27T08:37:49.349Z,16.30
2018-02-27T08:40:16.434Z,16.30
2018-02-27T08:42:44.694Z,16.31
2018-02-27T08:45:12.928Z,16.31
2018-02-27T08:47:40.019Z,16.33
2018-02-27T08:50:07.094Z,16.33
2018-02-27T08:52:34.593Z,16.33
2018-02-27T08:55:02.842Z,16.33
2018-02-27T08:57:30.704Z,16.33
2018-02-27T08:59:58.922Z,16.32
2018-02-27T09:02:26.026Z,16.32
2018-02-27T09:04:54.251Z,16.32
2018-02-27T09:07:22.139Z,16.32
2018-02-27T09:09:50.084Z,16.31
2018-02-27T09:12:18.674Z,16.32
2018-02-27T09:14:46.173Z,16.32
2018-02-27T09:17:14.055Z,16.32
2018-02-27T09:19:41.958Z,16.32
2018-02-27T09:22:10.685Z,16.32
2018-02-27T09:24:38.554Z,16.33
2018-02-27T09:27:06.031Z,16.33
2018-02-27T09:29:33.130Z,16.33
2018-02-27T09:32:00.273Z,16.33
2018-02-27T09:34:28.137Z,16.33
2018-02-27T09:36:56.005Z,16.32
2018-02-27T09:39:24.244Z,16.32
2018-02-27T09:41:52.101Z,16.32
2018-02-27T09:44:20.861Z,16.33
2018-02-27T09:46:47.960Z,16.32
2018-02-27T09:49:15.072Z,16.32
2018-02-27T09:51:42.162Z,16.32
2018-02-27T09:54:10.024Z,16.32
2018-02-27T09:56:37.143Z,16.32
2018-02-27T09:59:04.218Z,16.31
2018-02-27T10:01:32.069Z,16.31
2018-02-27T10:04:00.289Z,16.30
2018-02-27T10:06:28.136Z,16.30
2018-02-27T10:08:56.911Z,16.30
2018-02-27T10:11:24.388Z,16.29
2018-02-27T10:13:52.253Z,16.30
2018-02-27T10:16:20.477Z,16.31
2018-02-27T10:18:48.693Z,16.31
2018-02-27T10:21:15.807Z,16.32
2018-02-27T10:23:44.528Z,16.33
2018-02-27T10:26:12.006Z,16.34
2018-02-27T10:28:39.108Z,16.35
2018-02-27T10:31:06.600Z,16.35
2018-02-27T10:33:34.892Z,16.35
2018-02-27T10:36:03.146Z,16.35
2018-02-27T10:38:30.989Z,16.36
2018-02-27T10:40:58.070Z,16.36
2018-02-27T10:43:25.151Z,16.36
2018-02-27T10:45:52.680Z,16.36
2018-02-27T10:48:20.903Z,16.35
2018-02-27T10:50:48.767Z,16.35
2018-02-27T10:53:17.034Z,16.35
2018-02-27T10:55:44.123Z,16.34
2018-02-27T10:58:11.252Z,16.33
2018-02-27T11:00:51.054Z,16.34
2018-02-27T11:03:18.955Z,16.33
2018-02-27T11:05:46.048Z,16.33
2018-02-27T11:08:14.792Z,16.33
2018-02-27T11:10:42.288Z,16.32
2018-02-27T11:13:10.206Z,16.32
2018-02-27T11:15:37.325Z,16.32
2018-02-27T11:18:06.063Z,16.32
2018-02-27T11:20:34.296Z,16.33
2018-02-27T11:23:02.147Z,16.33
2018-02-27T11:25:30.370Z,16.33
2018-02-27T11:27:57.490Z,16.33
2018-02-27T11:30:24.575Z,16.33
2018-02-27T11:32:51.672Z,16.34
2018-02-27T11:35:20.270Z,16.34
2018-02-27T11:37:48.117Z,16.35
2018-02-27T11:40:15.636Z,16.35
2018-02-27T11:42:44.221Z,16.36
2018-02-27T11:45:12.507Z,16.36
2018-02-27T11:47:39.566Z,16.36
2018-02-27T11:50:06.652Z,16.36
2018-02-27T11:52:34.544Z,16.36
2018-02-27T11:55:02.397Z,16.36
2018-02-27T11:57:30.246Z,16.36
2018-02-27T11:59:58.099Z,16.36
2018-02-27T12:02:26.338Z,16.35
2018-02-27T12:04:54.308Z,16.35
2018-02-27T12:07:22.542Z,16.35
2018-02-27T12:09:50.785Z,16.35
2018-02-27T12:12:17.866Z,16.35
2018-02-27T12:14:46.108Z,16.35
2018-02-27T12:17:13.200Z,16.34
2018-02-27T12:19:40.299Z,16.34
2018-02-27T12:22:08.563Z,16.34
2018-02-27T12:24:36.799Z,16.34
2018-02-27T12:27:05.529Z,16.34
2018-02-27T12:29:33.020Z,16.34
2018-02-27T12:32:01.764Z,16.34
2018-02-27T12:34:30.535Z,16.35
2018-02-27T12:36:58.399Z,16.35
2018-02-27T12:39:26.265Z,16.35
2018-02-27T12:41:54.522Z,16.36
2018-02-27T12:44:22.368Z,16.36
2018-02-27T12:46:50.264Z,16.35
2018-02-27T12:49:17.364Z,16.35
2018-02-27T12:51:44.458Z,16.35
2018-02-27T12:54:12.339Z,16.34
2018-02-27T12:56:40.189Z,16.35
2018-02-27T12:59:08.425Z,16.34
2018-02-27T13:01:36.283Z,16.33
2018-02-27T13:04:04.521Z,16.33
2018-02-27T13:06:32.796Z,16.32
2018-02-27T13:09:01.562Z,16.31
2018-02-27T13:11:30.115Z,16.31
2018-02-27T13:13:59.368Z,16.32
2018-02-27T13:16:27.097Z,16.31
2018-02-27T13:18:55.508Z,16.32
2018-02-27T13:21:23.110Z,16.32
2018-02-27T13:23:50.679Z,16.33
2018-02-27T13:26:19.265Z,16.34
2018-02-27T13:28:47.622Z,16.35
2018-02-27T13:31:16.887Z,16.35
2018-02-27T13:33:44.866Z,16.36
2018-02-27T13:36:14.184Z,16.37
2018-02-27T13:38:43.077Z,16.38
2018-02-27T13:41:10.862Z,16.38
2018-02-27T13:43:39.689Z,16.39
2018-02-27T13:46:08.105Z,16.39
2018-02-27T13:48:45.757Z,16.40
2018-02-27T13:51:03.544Z,16.40
2018-02-27T13:53:32.729Z,16.40
2018-02-27T13:56:00.819Z,16.41
2018-02-27T13:58:29.185Z,16.40
2018-02-27T14:00:56.881Z,16.40
2018-02-27T14:03:25.307Z,16.40
2018-02-27T14:05:53.708Z,16.39
2018-02-27T14:08:21.529Z,16.39
2018-02-27T14:10:49.198Z,16.38
2018-02-27T14:13:17.217Z,16.38
2018-02-27T14:15:45.372Z,16.38
2018-02-27T14:18:13.553Z,16.38
2018-02-27T14:20:42.457Z,16.37
2018-02-27T14:23:10.162Z,16.36
2018-02-27T14:25:40.036Z,16.36
2018-02-27T14:28:08.198Z,16.36
2018-02-27T14:30:36.411Z,16.36
2018-02-27T14:33:06.451Z,16.36
2018-02-27T14:35:34.579Z,16.36
2018-02-27T14:38:02.430Z,16.36
2018-02-27T14:40:34.824Z,16.36
2018-02-27T14:43:02.015Z,16.37
2018-02-27T14:45:29.094Z,16.37
2018-02-27T14:47:57.935Z,16.37
2018-02-27T14:50:26.743Z,16.37
2018-02-27T14:52:53.838Z,16.38
2018-02-27T14:55:21.698Z,16.38
2018-02-27T14:57:48.801Z,16.39
2018-02-27T15:00:15.882Z,16.39
2018-02-27T15:02:44.524Z,16.39
2018-02-27T15:05:11.607Z,16.39
2018-02-27T15:07:39.462Z,16.39
2018-02-27T15:10:06.829Z,16.39
2018-02-27T15:12:33.957Z,16.39
2018-02-27T15:15:01.838Z,16.40
2018-02-27T15:17:29.333Z,16.39
2018-02-27T15:19:57.198Z,16.39
2018-02-27T15:22:25.983Z,16.38
2018-02-27T15:24:55.049Z,16.38
2018-02-27T15:27:22.312Z,16.38
2018-02-27T15:29:49.552Z,16.38
2018-02-27T15:32:16.685Z,16.38
2018-02-27T15:34:44.809Z,16.38
2018-02-27T15:37:11.894Z,16.38
2018-02-27T15:39:39.796Z,16.37
2018-02-27T15:42:07.068Z,16.37
2018-02-27T15:44:34.204Z,16.37
2018-02-27T15:47:01.286Z,16.37
2018-02-27T15:49:28.366Z,16.38
2018-02-27T15:51:55.509Z,16.38
2018-02-27T15:54:23.372Z,16.38
2018-02-27T15:56:51.013Z,16.38
2018-02-27T15:59:19.750Z,16.38
2018-02-27T16:01:47.226Z,16.39
2018-02-27T16:04:15.847Z,16.39
2018-02-27T16:06:43.693Z,16.39
2018-02-27T16:09:10.769Z,16.39
2018-02-27T16:11:38.634Z,16.39
2018-02-27T16:14:07.231Z,16.39
2018-02-27T16:16:34.359Z,16.40
2018-02-27T16:19:01.465Z,16.40
2018-02-27T16:21:28.639Z,16.40
2018-02-27T16:23:56.508Z,16.40
2018-02-27T16:26:24.375Z,16.40
2018-02-27T16:28:51.485Z,16.40
2018-02-27T16:31:19.348Z,16.40
2018-02-27T16:33:47.577Z,16.40
2018-02-27T16:36:14.658Z,16.40
2018-02-27T16:38:42.525Z,16.40
2018-02-27T16:41:10.527Z,16.39
2018-02-27T16:43:38.370Z,16.39
2018-02-27T16:46:05.586Z,16.39
2018-02-27T16:48:34.312Z,16.39
2018-02-27T16:51:01.791Z,16.39
2018-02-27T16:53:28.918Z,16.39
2018-02-27T16:55:56.407Z,16.39
2018-02-27T16:58:23.890Z,16.40
2018-02-27T17:00:51.388Z,16.39
2018-02-27T17:03:18.475Z,16.39
2018-02-27T17:05:46.359Z,16.40
2018-02-27T17:08:14.589Z,16.40
2018-02-27T17:10:42.453Z,16.39
2018-02-27T17:13:09.548Z,16.40
2018-02-27T17:15:37.407Z,16.40
2018-02-27T17:18:04.522Z,16.39
2018-02-27T17:20:31.667Z,16.40
2018-02-27T17:22:59.149Z,16.40
2018-02-27T17:25:27.384Z,16.40
2018-02-27T17:27:56.127Z,16.40
2018-02-27T17:30:23.641Z,16.40
2018-02-27T17:32:50.743Z,16.40
2018-02-27T17:35:18.589Z,16.40
2018-02-27T17:37:46.825Z,16.40
2018-02-27T17:40:14.684Z,16.41
2018-02-27T17:42:41.803Z,16.41
2018-02-27T17:45:09.651Z,16.40
2018-02-27T17:47:36.729Z,16.40
2018-02-27T17:50:03.834Z,16.41
2018-02-27T17:52:32.584Z,16.40
2018-02-27T17:55:00.466Z,16.40
2018-02-27T17:57:27.587Z,16.40
2018-02-27T17:59:54.672Z,16.40
2018-02-27T18:02:21.781Z,16.41
2018-02-27T18:04:48.877Z,16.40
2018-02-27T18:07:17.140Z,16.40
2018-02-27T18:09:44.241Z,16.39
2018-02-27T18:12:11.348Z,16.40
2018-02-27T18:14:38.831Z,16.39
2018-02-27T18:17:06.693Z,16.41
2018-02-27T18:19:34.574Z,16.40
2018-02-27T18:22:03.180Z,16.40
2018-02-27T18:24:30.258Z,16.41
2018-02-27T18:26:57.348Z,16.39
2018-02-27T18:29:24.836Z,16.41
2018-02-27T18:31:53.113Z,16.40
2018-02-27T18:34:21.846Z,16.40
2018-02-27T18:36:50.440Z,16.40
2018-02-27T18:39:18.314Z,16.40
2018-02-27T18:41:46.176Z,16.39
2018-02-27T18:44:14.883Z,16.39
2018-02-27T18:46:42.692Z,16.39
2018-02-27T18:49:10.562Z,16.39
2018-02-27T18:51:38.821Z,16.39
2018-02-27T18:54:07.425Z,16.39
2018-02-27T18:56:34.556Z,16.41
2018-02-27T18:59:01.657Z,16.41
2018-02-27T19:01:29.510Z,16.41
2018-02-27T19:03:56.598Z,16.41
2018-02-27T19:06:24.838Z,16.41
2018-02-27T19:08:52.003Z,16.42
2018-02-27T19:11:19.110Z,16.43
2018-02-27T19:13:46.590Z,16.43
2018-02-27T19:16:15.339Z,16.43
2018-02-27T19:18:42.438Z,16.43
2018-02-27T19:21:10.820Z,16.43
2018-02-27T19:23:39.030Z,16.43
2018-02-27T19:26:06.981Z,16.43
2018-02-27T19:28:35.572Z,16.43
2018-02-27T19:31:03.162Z,16.43
2018-02-27T19:33:32.347Z,16.42
2018-02-27T19:35:59.655Z,16.42
2018-02-27T19:38:28.442Z,16.42
2018-02-27T19:40:56.678Z,16.41
2018-02-27T19:43:24.733Z,16.42
2018-02-27T19:45:52.814Z,16.41
2018-02-27T19:48:20.998Z,16.41
2018-02-27T19:50:49.079Z,16.41
2018-02-27T19:53:18.207Z,16.41
2018-02-27T19:55:46.580Z,16.40
2018-02-27T19:58:14.629Z,16.41
2018-02-27T20:00:43.403Z,16.41
2018-02-27T20:03:11.081Z,16.41
2018-02-27T20:05:39.397Z,16.41
2018-02-27T20:08:07.928Z,16.41
2018-02-27T20:10:36.191Z,16.41
2018-02-27T20:13:04.503Z,16.42
2018-02-27T20:15:32.985Z,16.42
2018-02-27T20:18:07.942Z,16.42
2018-02-27T20:20:37.835Z,16.42
2018-02-27T20:23:11.351Z,16.43
2018-02-27T20:25:39.060Z,16.43
2018-02-27T20:28:12.263Z,16.43
2018-02-27T20:30:40.346Z,16.43
2018-02-27T20:33:08.822Z,16.43
2018-02-27T20:35:37.369Z,16.42
2018-02-27T20:38:05.775Z,16.43
2018-02-27T20:40:33.330Z,16.43
2018-02-27T20:43:00.871Z,16.42
2018-02-27T20:45:30.491Z,16.41
2018-02-27T20:47:58.635Z,16.42
2018-02-27T20:50:27.131Z,16.42
2018-02-27T20:52:55.767Z,16.42
2018-02-27T20:55:24.000Z,16.42
2018-02-27T20:57:53.639Z,16.41
2018-02-27T21:00:22.377Z,16.42
2018-02-27T21:02:50.050Z,16.42
2018-02-27T21:05:18.089Z,16.42
2018-02-27T21:07:46.056Z,16.41
2018-02-27T21:10:13.936Z,16.41
2018-02-27T21:12:43.511Z,16.42
2018-02-27T21:15:11.289Z,16.42
2018-02-27T21:17:40.008Z,16.42
2018-02-27T21:20:08.075Z,16.43
2018-02-27T21:22:35.907Z,16.42
2018-02-27T21:25:04.078Z,16.42
2018-02-27T21:27:33.674Z,16.43
2018-02-27T21:30:01.861Z,16.42
2018-02-27T21:32:30.032Z,16.43
2018-02-27T21:34:57.310Z,16.43
2018-02-27T21:37:25.090Z,16.43
2018-02-27T21:39:53.258Z,16.43
2018-02-27T21:42:21.036Z,16.43
2018-02-27T21:44:50.040Z,16.43
2018-02-27T21:47:17.383Z,16.43
2018-02-27T21:49:45.902Z,16.43
2018-02-27T21:52:14.910Z,16.43
2018-02-27T21:54:43.298Z,16.43
2018-02-27T21:57:11.180Z,16.43
2018-02-27T21:59:40.103Z,16.43
2018-02-27T22:02:07.244Z,16.42
2018-02-27T22:04:35.225Z,16.42
2018-02-27T22:07:02.769Z,16.42
2018-02-27T22:09:31.360Z,16.43
2018-02-27T22:11:58.875Z,16.43
2018-02-27T22:14:27.600Z,16.43
2018-02-27T22:16:56.348Z,16.43
2018-02-27T22:19:24.215Z,16.42
2018-02-27T22:21:51.709Z,16.43
2018-02-27T22:24:19.283Z,16.42
2018-02-27T22:26:47.266Z,16.42
2018-02-27T22:29:15.246Z,16.43
2018-02-27T22:31:43.127Z,16.42
2018-02-27T22:34:11.416Z,16.42
2018-02-27T22:36:41.073Z,16.42
2018-02-27T22:39:10.740Z,16.42
2018-02-27T22:41:39.970Z,16.42
2018-02-27T22:44:07.105Z,16.42
2018-02-27T22:46:34.200Z,16.42
2018-02-27T22:49:01.294Z,16.42
2018-02-27T22:51:30.033Z,16.43
2018-02-27T22:53:58.877Z,16.43
2018-02-27T22:56:26.737Z,16.43
2018-02-27T22:58:55.644Z,16.43
2018-02-27T23:01:23.568Z,16.42
2018-02-27T23:03:51.606Z,16.43
2018-02-27T23:06:19.532Z,16.43
2018-02-27T23:08:48.641Z,16.43
2018-02-27T23:11:17.233Z,16.43
2018-02-27T23:13:45.477Z,16.43
2018-02-27T23:16:15.056Z,16.43
2018-02-27T23:18:43.093Z,16.43
2018-02-27T23:21:12.510Z,16.43
2018-02-27T23:23:40.318Z,16.43
2018-02-27T23:26:12.753Z,16.45
2018-02-27T23:28:41.374Z,16.43
2018-02-27T23:31:11.182Z,16.43
2018-02-27T23:33:41.839Z,16.43
2018-02-27T23:36:10.461Z,16.43
2018-02-27T23:38:40.049Z,16.43
2018-02-27T23:41:07.779Z,16.43
2018-02-27T23:43:35.395Z,16.43
2018-02-27T23:46:04.199Z,16.43
2018-02-27T23:48:32.181Z,16.43
2018-02-27T23:50:59.967Z,16.43
2018-02-27T23:53:27.627Z,16.43
2018-02-27T23:55:55.203Z,16.43
2018-02-27T23:58:24.515Z,16.43
